sensor_id;sensor_type;location;lat;lon;timestamp;P1;durP1;ratioP1;P2;durP2;ratioP2
2940;SDS011;1480;51.456;6.670;2023-03-01T00:00:37;8.40;;;7.07;;
2940;SDS011;1480;51.456;6.670;2023-03-01T00:03:04;10.37;;;6.83;;
2940;SDS011;1480;51.456;6.670;2023-03-01T00:05:31;11.73;;;7.17;;
2940;SDS011;1480;51.456;6.670;2023-03-01T00:07:59;9.80;;;6.47;;
2940;SDS011;1480;51.456;6.670;2023-03-01T00:10:26;7.40;;;6.37;;
2940;SDS011;1480;51.456;6.670;2023-03-01T00:12:52;9.33;;;7.23;;
2940;SDS011;1480;51.456;6.670;2023-03-01T00:15:20;8.87;;;6.73;;
2940;SDS011;1480;51.456;6.670;2023-03-01T00:17:46;12.30;;;6.60;;
2940;SDS011;1480;51.456;6.670;2023-03-01T00:20:13;7.83;;;7.00;;
2940;SDS011;1480;51.456;6.670;2023-03-01T00:22:40;8.20;;;6.00;;
2940;SDS011;1480;51.456;6.670;2023-03-01T00:25:08;8.50;;;7.23;;
2940;SDS011;1480;51.456;6.670;2023-03-01T00:27:35;9.30;;;6.97;;
2940;SDS011;1480;51.456;6.670;2023-03-01T00:30:02;8.43;;;6.07;;
2940;SDS011;1480;51.456;6.670;2023-03-01T00:32:29;9.00;;;7.00;;
2940;SDS011;1480;51.456;6.670;2023-03-01T00:34:55;7.87;;;7.00;;
2940;SDS011;1480;51.456;6.670;2023-03-01T00:37:22;7.93;;;7.10;;
2940;SDS011;1480;51.456;6.670;2023-03-01T00:39:50;8.07;;;6.60;;
2940;SDS011;1480;51.456;6.670;2023-03-01T00:42:18;8.90;;;6.70;;
2940;SDS011;1480;51.456;6.670;2023-03-01T00:44:45;10.20;;;7.70;;
2940;SDS011;1480;51.456;6.670;2023-03-01T00:47:11;12.03;;;7.43;;
2940;SDS011;1480;51.456;6.670;2023-03-01T00:49:39;9.20;;;6.40;;
2940;SDS011;1480;51.456;6.670;2023-03-01T00:52:05;7.83;;;6.60;;
2940;SDS011;1480;51.456;6.670;2023-03-01T00:54:32;8.40;;;7.30;;
2940;SDS011;1480;51.456;6.670;2023-03-01T00:56:59;11.93;;;7.50;;
2940;SDS011;1480;51.456;6.670;2023-03-01T00:59:26;7.70;;;7.00;;
2940;SDS011;1480;51.456;6.670;2023-03-01T01:01:53;8.07;;;6.50;;
2940;SDS011;1480;51.456;6.670;2023-03-01T01:04:21;11.17;;;8.40;;
2940;SDS011;1480;51.456;6.670;2023-03-01T01:06:47;15.00;;;7.73;;
2940;SDS011;1480;51.456;6.670;2023-03-01T01:09:15;8.30;;;7.10;;
2940;SDS011;1480;51.456;6.670;2023-03-01T01:11:43;9.50;;;7.37;;
2940;SDS011;1480;51.456;6.670;2023-03-01T01:14:10;11.60;;;8.10;;
2940;SDS011;1480;51.456;6.670;2023-03-01T01:16:38;8.80;;;7.47;;
2940;SDS011;1480;51.456;6.670;2023-03-01T01:19:05;8.30;;;6.63;;
2940;SDS011;1480;51.456;6.670;2023-03-01T01:21:32;11.43;;;7.43;;
2940;SDS011;1480;51.456;6.670;2023-03-01T01:23:59;9.00;;;7.87;;
2940;SDS011;1480;51.456;6.670;2023-03-01T01:26:27;10.07;;;8.27;;
2940;SDS011;1480;51.456;6.670;2023-03-01T01:28:54;10.90;;;8.00;;
2940;SDS011;1480;51.456;6.670;2023-03-01T01:31:22;9.20;;;7.60;;
2940;SDS011;1480;51.456;6.670;2023-03-01T01:33:51;8.93;;;8.13;;
2940;SDS011;1480;51.456;6.670;2023-03-01T01:36:17;9.83;;;7.40;;
2940;SDS011;1480;51.456;6.670;2023-03-01T01:38:44;10.57;;;8.17;;
2940;SDS011;1480;51.456;6.670;2023-03-01T01:41:11;12.07;;;8.87;;
2940;SDS011;1480;51.456;6.670;2023-03-01T01:43:39;9.60;;;7.40;;
2940;SDS011;1480;51.456;6.670;2023-03-01T01:46:10;10.97;;;7.37;;
2940;SDS011;1480;51.456;6.670;2023-03-01T01:48:43;9.10;;;7.57;;
2940;SDS011;1480;51.456;6.670;2023-03-01T01:51:16;11.43;;;8.10;;
2940;SDS011;1480;51.456;6.670;2023-03-01T01:53:45;10.57;;;7.90;;
2940;SDS011;1480;51.456;6.670;2023-03-01T01:56:14;11.37;;;9.27;;
2940;SDS011;1480;51.456;6.670;2023-03-01T01:58:42;9.57;;;7.90;;
2940;SDS011;1480;51.456;6.670;2023-03-01T02:01:09;12.60;;;7.63;;
2940;SDS011;1480;51.456;6.670;2023-03-01T02:03:38;10.67;;;8.30;;
2940;SDS011;1480;51.456;6.670;2023-03-01T02:06:12;9.87;;;7.40;;
2940;SDS011;1480;51.456;6.670;2023-03-01T02:08:44;12.37;;;7.57;;
2940;SDS011;1480;51.456;6.670;2023-03-01T02:11:12;7.67;;;6.90;;
2940;SDS011;1480;51.456;6.670;2023-03-01T02:13:39;13.67;;;8.90;;
2940;SDS011;1480;51.456;6.670;2023-03-01T02:16:08;10.30;;;7.27;;
2940;SDS011;1480;51.456;6.670;2023-03-01T02:18:35;12.00;;;9.23;;
2940;SDS011;1480;51.456;6.670;2023-03-01T02:21:06;11.93;;;8.03;;
2940;SDS011;1480;51.456;6.670;2023-03-01T02:23:39;11.27;;;8.93;;
2940;SDS011;1480;51.456;6.670;2023-03-01T02:26:09;10.93;;;8.00;;
2940;SDS011;1480;51.456;6.670;2023-03-01T02:28:42;10.17;;;8.70;;
2940;SDS011;1480;51.456;6.670;2023-03-01T02:31:10;8.53;;;6.57;;
2940;SDS011;1480;51.456;6.670;2023-03-01T02:33:55;11.00;;;7.67;;
2940;SDS011;1480;51.456;6.670;2023-03-01T02:36:23;10.53;;;7.97;;
2940;SDS011;1480;51.456;6.670;2023-03-01T02:38:52;10.27;;;7.33;;
2940;SDS011;1480;51.456;6.670;2023-03-01T02:41:21;12.10;;;7.70;;
2940;SDS011;1480;51.456;6.670;2023-03-01T02:43:50;9.50;;;7.67;;
2940;SDS011;1480;51.456;6.670;2023-03-01T02:46:17;9.90;;;8.37;;
2940;SDS011;1480;51.456;6.670;2023-03-01T02:48:46;9.57;;;7.67;;
2940;SDS011;1480;51.456;6.670;2023-03-01T02:51:31;13.57;;;9.73;;
2940;SDS011;1480;51.456;6.670;2023-03-01T02:54:07;12.40;;;8.40;;
2940;SDS011;1480;51.456;6.670;2023-03-01T02:56:35;12.07;;;8.13;;
2940;SDS011;1480;51.456;6.670;2023-03-01T02:59:03;9.97;;;7.93;;
2940;SDS011;1480;51.456;6.670;2023-03-01T03:01:31;9.67;;;7.33;;
2940;SDS011;1480;51.456;6.670;2023-03-01T03:04:04;10.00;;;7.70;;
2940;SDS011;1480;51.456;6.670;2023-03-01T03:06:31;10.10;;;9.10;;
2940;SDS011;1480;51.456;6.670;2023-03-01T03:08:59;12.53;;;8.60;;
2940;SDS011;1480;51.456;6.670;2023-03-01T03:11:25;11.10;;;8.90;;
2940;SDS011;1480;51.456;6.670;2023-03-01T03:13:53;10.23;;;7.93;;
2940;SDS011;1480;51.456;6.670;2023-03-01T03:16:23;7.80;;;6.90;;
2940;SDS011;1480;51.456;6.670;2023-03-01T03:18:50;8.87;;;7.43;;
2940;SDS011;1480;51.456;6.670;2023-03-01T03:21:17;10.60;;;8.60;;
2940;SDS011;1480;51.456;6.670;2023-03-01T03:23:44;7.90;;;6.30;;
2940;SDS011;1480;51.456;6.670;2023-03-01T03:26:10;9.33;;;7.37;;
2940;SDS011;1480;51.456;6.670;2023-03-01T03:28:40;10.73;;;8.73;;
2940;SDS011;1480;51.456;6.670;2023-03-01T03:31:07;10.70;;;7.83;;
2940;SDS011;1480;51.456;6.670;2023-03-01T03:33:35;12.30;;;8.80;;
2940;SDS011;1480;51.456;6.670;2023-03-01T03:36:02;11.17;;;7.97;;
2940;SDS011;1480;51.456;6.670;2023-03-01T03:38:29;12.63;;;7.70;;
2940;SDS011;1480;51.456;6.670;2023-03-01T03:41:00;10.03;;;7.83;;
2940;SDS011;1480;51.456;6.670;2023-03-01T03:43:29;11.47;;;9.03;;
2940;SDS011;1480;51.456;6.670;2023-03-01T03:45:56;10.43;;;8.93;;
2940;SDS011;1480;51.456;6.670;2023-03-01T03:48:23;12.23;;;8.37;;
2940;SDS011;1480;51.456;6.670;2023-03-01T03:50:53;11.67;;;8.10;;
2940;SDS011;1480;51.456;6.670;2023-03-01T03:53:21;10.23;;;9.07;;
2940;SDS011;1480;51.456;6.670;2023-03-01T03:55:48;12.10;;;8.50;;
2940;SDS011;1480;51.456;6.670;2023-03-01T03:58:16;9.73;;;8.03;;
2940;SDS011;1480;51.456;6.670;2023-03-01T04:00:45;9.07;;;7.37;;
2940;SDS011;1480;51.456;6.670;2023-03-01T04:03:12;12.00;;;8.87;;
2940;SDS011;1480;51.456;6.670;2023-03-01T04:05:40;11.40;;;7.80;;
2940;SDS011;1480;51.456;6.670;2023-03-01T04:08:09;15.63;;;8.27;;
2940;SDS011;1480;51.456;6.670;2023-03-01T04:10:36;9.37;;;8.30;;
2940;SDS011;1480;51.456;6.670;2023-03-01T04:13:04;10.53;;;8.10;;
2940;SDS011;1480;51.456;6.670;2023-03-01T04:15:32;11.50;;;9.20;;
2940;SDS011;1480;51.456;6.670;2023-03-01T04:17:59;12.13;;;9.10;;
2940;SDS011;1480;51.456;6.670;2023-03-01T04:20:27;10.07;;;7.40;;
2940;SDS011;1480;51.456;6.670;2023-03-01T04:22:57;10.80;;;8.70;;
2940;SDS011;1480;51.456;6.670;2023-03-01T04:25:37;12.07;;;8.90;;
2940;SDS011;1480;51.456;6.670;2023-03-01T04:28:04;10.20;;;7.30;;
2940;SDS011;1480;51.456;6.670;2023-03-01T04:30:30;12.60;;;8.80;;
2940;SDS011;1480;51.456;6.670;2023-03-01T04:33:01;11.37;;;8.00;;
2940;SDS011;1480;51.456;6.670;2023-03-01T04:35:29;9.80;;;8.10;;
2940;SDS011;1480;51.456;6.670;2023-03-01T04:37:56;14.17;;;8.57;;
2940;SDS011;1480;51.456;6.670;2023-03-01T04:40:23;9.43;;;8.10;;
2940;SDS011;1480;51.456;6.670;2023-03-01T04:42:51;9.53;;;7.67;;
2940;SDS011;1480;51.456;6.670;2023-03-01T04:45:18;10.97;;;7.67;;
2940;SDS011;1480;51.456;6.670;2023-03-01T04:47:45;11.83;;;8.20;;
2940;SDS011;1480;51.456;6.670;2023-03-01T04:50:12;10.17;;;7.67;;
2940;SDS011;1480;51.456;6.670;2023-03-01T04:52:41;9.57;;;8.57;;
2940;SDS011;1480;51.456;6.670;2023-03-01T04:55:09;14.00;;;8.13;;
2940;SDS011;1480;51.456;6.670;2023-03-01T04:57:36;10.27;;;8.67;;
2940;SDS011;1480;51.456;6.670;2023-03-01T05:00:05;11.27;;;8.37;;
2940;SDS011;1480;51.456;6.670;2023-03-01T05:02:45;8.33;;;7.50;;
2940;SDS011;1480;51.456;6.670;2023-03-01T05:05:21;12.00;;;8.70;;
2940;SDS011;1480;51.456;6.670;2023-03-01T05:07:51;19.33;;;8.47;;
2940;SDS011;1480;51.456;6.670;2023-03-01T05:10:18;11.23;;;8.07;;
2940;SDS011;1480;51.456;6.670;2023-03-01T05:12:45;14.63;;;8.07;;
2940;SDS011;1480;51.456;6.670;2023-03-01T05:15:14;11.47;;;8.93;;
2940;SDS011;1480;51.456;6.670;2023-03-01T05:17:41;17.17;;;9.93;;
2940;SDS011;1480;51.456;6.670;2023-03-01T05:20:08;9.43;;;8.23;;
2940;SDS011;1480;51.456;6.670;2023-03-01T05:22:35;11.00;;;8.77;;
2940;SDS011;1480;51.456;6.670;2023-03-01T05:25:02;13.40;;;8.90;;
2940;SDS011;1480;51.456;6.670;2023-03-01T05:27:30;12.03;;;9.23;;
2940;SDS011;1480;51.456;6.670;2023-03-01T05:29:56;10.13;;;8.43;;
2940;SDS011;1480;51.456;6.670;2023-03-01T05:32:24;11.10;;;8.93;;
2940;SDS011;1480;51.456;6.670;2023-03-01T05:34:51;16.60;;;10.50;;
2940;SDS011;1480;51.456;6.670;2023-03-01T05:37:20;12.00;;;9.60;;
2940;SDS011;1480;51.456;6.670;2023-03-01T05:39:46;10.83;;;9.03;;
2940;SDS011;1480;51.456;6.670;2023-03-01T05:42:15;10.73;;;8.67;;
2940;SDS011;1480;51.456;6.670;2023-03-01T05:44:42;12.67;;;9.93;;
2940;SDS011;1480;51.456;6.670;2023-03-01T05:47:08;12.60;;;8.53;;
2940;SDS011;1480;51.456;6.670;2023-03-01T05:49:36;11.27;;;9.40;;
2940;SDS011;1480;51.456;6.670;2023-03-01T05:52:03;14.00;;;10.03;;
2940;SDS011;1480;51.456;6.670;2023-03-01T05:54:30;14.43;;;9.33;;
2940;SDS011;1480;51.456;6.670;2023-03-01T05:56:57;13.63;;;9.47;;
2940;SDS011;1480;51.456;6.670;2023-03-01T05:59:23;12.93;;;8.10;;
2940;SDS011;1480;51.456;6.670;2023-03-01T06:01:50;11.83;;;8.90;;
2940;SDS011;1480;51.456;6.670;2023-03-01T06:04:17;13.70;;;10.00;;
2940;SDS011;1480;51.456;6.670;2023-03-01T06:06:45;10.93;;;8.83;;
2940;SDS011;1480;51.456;6.670;2023-03-01T06:09:11;14.57;;;9.60;;
2940;SDS011;1480;51.456;6.670;2023-03-01T06:11:39;13.30;;;9.93;;
2940;SDS011;1480;51.456;6.670;2023-03-01T06:14:06;12.77;;;9.30;;
2940;SDS011;1480;51.456;6.670;2023-03-01T06:16:33;14.03;;;9.40;;
2940;SDS011;1480;51.456;6.670;2023-03-01T06:19:00;12.20;;;8.77;;
2940;SDS011;1480;51.456;6.670;2023-03-01T06:21:26;12.10;;;8.23;;
2940;SDS011;1480;51.456;6.670;2023-03-01T06:23:54;10.63;;;9.53;;
2940;SDS011;1480;51.456;6.670;2023-03-01T06:26:21;16.43;;;9.27;;
2940;SDS011;1480;51.456;6.670;2023-03-01T06:28:48;10.80;;;8.60;;
2940;SDS011;1480;51.456;6.670;2023-03-01T06:31:14;13.37;;;10.17;;
2940;SDS011;1480;51.456;6.670;2023-03-01T06:33:41;9.63;;;8.33;;
2940;SDS011;1480;51.456;6.670;2023-03-01T06:36:09;12.50;;;9.13;;
2940;SDS011;1480;51.456;6.670;2023-03-01T06:38:36;12.90;;;9.67;;
2940;SDS011;1480;51.456;6.670;2023-03-01T06:41:04;11.37;;;9.03;;
2940;SDS011;1480;51.456;6.670;2023-03-01T06:43:31;11.80;;;8.87;;
2940;SDS011;1480;51.456;6.670;2023-03-01T06:45:58;10.33;;;9.10;;
2940;SDS011;1480;51.456;6.670;2023-03-01T06:48:25;11.27;;;8.13;;
2940;SDS011;1480;51.456;6.670;2023-03-01T06:50:52;15.00;;;9.77;;
2940;SDS011;1480;51.456;6.670;2023-03-01T06:53:19;13.60;;;10.10;;
2940;SDS011;1480;51.456;6.670;2023-03-01T06:55:46;12.97;;;8.83;;
2940;SDS011;1480;51.456;6.670;2023-03-01T06:58:14;11.97;;;10.10;;
2940;SDS011;1480;51.456;6.670;2023-03-01T07:00:40;11.70;;;8.90;;
2940;SDS011;1480;51.456;6.670;2023-03-01T07:03:08;12.77;;;10.57;;
2940;SDS011;1480;51.456;6.670;2023-03-01T07:05:35;14.77;;;10.67;;
2940;SDS011;1480;51.456;6.670;2023-03-01T07:08:02;16.53;;;10.47;;
2940;SDS011;1480;51.456;6.670;2023-03-01T07:10:29;12.40;;;10.20;;
2940;SDS011;1480;51.456;6.670;2023-03-01T07:12:56;18.00;;;10.37;;
2940;SDS011;1480;51.456;6.670;2023-03-01T07:15:24;13.60;;;10.90;;
2940;SDS011;1480;51.456;6.670;2023-03-01T07:17:52;14.00;;;9.60;;
2940;SDS011;1480;51.456;6.670;2023-03-01T07:20:19;14.20;;;9.97;;
2940;SDS011;1480;51.456;6.670;2023-03-01T07:22:49;13.53;;;10.40;;
2940;SDS011;1480;51.456;6.670;2023-03-01T07:25:16;14.40;;;10.70;;
2940;SDS011;1480;51.456;6.670;2023-03-01T07:27:42;11.20;;;9.33;;
2940;SDS011;1480;51.456;6.670;2023-03-01T07:30:10;13.43;;;10.70;;
2940;SDS011;1480;51.456;6.670;2023-03-01T07:32:38;13.43;;;9.97;;
2940;SDS011;1480;51.456;6.670;2023-03-01T07:35:05;17.70;;;10.40;;
2940;SDS011;1480;51.456;6.670;2023-03-01T07:37:32;14.30;;;10.50;;
2940;SDS011;1480;51.456;6.670;2023-03-01T07:39:59;14.00;;;10.13;;
2940;SDS011;1480;51.456;6.670;2023-03-01T07:42:26;15.53;;;10.17;;
2940;SDS011;1480;51.456;6.670;2023-03-01T07:44:52;11.43;;;9.80;;
2940;SDS011;1480;51.456;6.670;2023-03-01T07:47:19;13.00;;;10.63;;
2940;SDS011;1480;51.456;6.670;2023-03-01T07:49:47;13.33;;;10.47;;
2940;SDS011;1480;51.456;6.670;2023-03-01T07:52:13;11.93;;;9.20;;
2940;SDS011;1480;51.456;6.670;2023-03-01T07:54:42;13.30;;;10.70;;
2940;SDS011;1480;51.456;6.670;2023-03-01T07:57:09;21.03;;;12.13;;
2940;SDS011;1480;51.456;6.670;2023-03-01T07:59:35;11.77;;;9.53;;
2940;SDS011;1480;51.456;6.670;2023-03-01T08:02:02;15.30;;;10.60;;
2940;SDS011;1480;51.456;6.670;2023-03-01T08:04:29;16.43;;;11.07;;
2940;SDS011;1480;51.456;6.670;2023-03-01T08:06:57;17.90;;;10.10;;
2940;SDS011;1480;51.456;6.670;2023-03-01T08:09:23;13.17;;;10.20;;
2940;SDS011;1480;51.456;6.670;2023-03-01T08:11:50;11.90;;;9.43;;
2940;SDS011;1480;51.456;6.670;2023-03-01T08:14:17;18.43;;;11.30;;
2940;SDS011;1480;51.456;6.670;2023-03-01T08:16:43;12.07;;;9.47;;
2940;SDS011;1480;51.456;6.670;2023-03-01T08:19:10;12.27;;;9.57;;
2940;SDS011;1480;51.456;6.670;2023-03-01T08:21:38;15.07;;;10.73;;
2940;SDS011;1480;51.456;6.670;2023-03-01T08:24:06;14.13;;;9.90;;
2940;SDS011;1480;51.456;6.670;2023-03-01T08:26:35;12.87;;;8.47;;
2940;SDS011;1480;51.456;6.670;2023-03-01T08:29:03;15.37;;;9.50;;
2940;SDS011;1480;51.456;6.670;2023-03-01T08:31:31;12.90;;;9.60;;
2940;SDS011;1480;51.456;6.670;2023-03-01T08:34:01;19.40;;;10.50;;
2940;SDS011;1480;51.456;6.670;2023-03-01T08:36:30;14.17;;;9.30;;
2940;SDS011;1480;51.456;6.670;2023-03-01T08:38:58;17.53;;;9.50;;
2940;SDS011;1480;51.456;6.670;2023-03-01T08:41:27;13.73;;;9.97;;
2940;SDS011;1480;51.456;6.670;2023-03-01T08:43:53;13.03;;;9.93;;
2940;SDS011;1480;51.456;6.670;2023-03-01T08:46:24;10.73;;;9.27;;
2940;SDS011;1480;51.456;6.670;2023-03-01T08:48:51;20.07;;;10.43;;
2940;SDS011;1480;51.456;6.670;2023-03-01T08:51:18;13.30;;;8.93;;
2940;SDS011;1480;51.456;6.670;2023-03-01T08:53:45;13.37;;;9.80;;
2940;SDS011;1480;51.456;6.670;2023-03-01T08:56:12;15.03;;;8.17;;
2940;SDS011;1480;51.456;6.670;2023-03-01T08:58:43;13.30;;;10.37;;
2940;SDS011;1480;51.456;6.670;2023-03-01T09:01:10;17.83;;;8.70;;
2940;SDS011;1480;51.456;6.670;2023-03-01T09:03:38;10.70;;;8.63;;
2940;SDS011;1480;51.456;6.670;2023-03-01T09:06:06;12.37;;;9.43;;
2940;SDS011;1480;51.456;6.670;2023-03-01T09:08:33;9.60;;;7.80;;
2940;SDS011;1480;51.456;6.670;2023-03-01T09:11:01;16.37;;;9.13;;
2940;SDS011;1480;51.456;6.670;2023-03-01T09:13:28;13.00;;;8.67;;
2940;SDS011;1480;51.456;6.670;2023-03-01T09:15:57;9.63;;;8.03;;
2940;SDS011;1480;51.456;6.670;2023-03-01T09:18:24;13.43;;;9.37;;
2940;SDS011;1480;51.456;6.670;2023-03-01T09:20:51;13.00;;;9.40;;
2940;SDS011;1480;51.456;6.670;2023-03-01T09:23:20;9.30;;;7.30;;
2940;SDS011;1480;51.456;6.670;2023-03-01T09:25:46;11.10;;;8.73;;
2940;SDS011;1480;51.456;6.670;2023-03-01T09:28:13;12.10;;;8.50;;
2940;SDS011;1480;51.456;6.670;2023-03-01T09:30:40;10.50;;;7.30;;
2940;SDS011;1480;51.456;6.670;2023-03-01T09:33:08;11.43;;;8.00;;
2940;SDS011;1480;51.456;6.670;2023-03-01T09:35:39;9.97;;;7.30;;
2940;SDS011;1480;51.456;6.670;2023-03-01T09:38:11;10.77;;;7.90;;
2940;SDS011;1480;51.456;6.670;2023-03-01T09:40:41;12.40;;;8.50;;
2940;SDS011;1480;51.456;6.670;2023-03-01T09:43:12;17.23;;;8.73;;
2940;SDS011;1480;51.456;6.670;2023-03-01T09:45:44;13.93;;;8.53;;
2940;SDS011;1480;51.456;6.670;2023-03-01T09:48:16;12.50;;;7.43;;
2940;SDS011;1480;51.456;6.670;2023-03-01T09:50:47;11.30;;;8.20;;
2940;SDS011;1480;51.456;6.670;2023-03-01T09:53:15;9.70;;;7.80;;
2940;SDS011;1480;51.456;6.670;2023-03-01T09:55:43;12.77;;;8.23;;
2940;SDS011;1480;51.456;6.670;2023-03-01T09:58:26;12.30;;;8.30;;
2940;SDS011;1480;51.456;6.670;2023-03-01T10:00:56;10.00;;;7.77;;
2940;SDS011;1480;51.456;6.670;2023-03-01T10:03:27;13.10;;;8.33;;
2940;SDS011;1480;51.456;6.670;2023-03-01T10:05:59;12.10;;;7.97;;
2940;SDS011;1480;51.456;6.670;2023-03-01T10:08:35;10.27;;;8.00;;
2940;SDS011;1480;51.456;6.670;2023-03-01T10:11:04;16.13;;;9.37;;
2940;SDS011;1480;51.456;6.670;2023-03-01T10:13:34;11.87;;;7.97;;
2940;SDS011;1480;51.456;6.670;2023-03-01T10:16:05;12.30;;;7.70;;
2940;SDS011;1480;51.456;6.670;2023-03-01T10:18:37;12.10;;;7.83;;
2940;SDS011;1480;51.456;6.670;2023-03-01T10:21:08;12.80;;;8.30;;
2940;SDS011;1480;51.456;6.670;2023-03-01T10:23:39;10.43;;;7.90;;
2940;SDS011;1480;51.456;6.670;2023-03-01T10:26:12;10.80;;;7.83;;
2940;SDS011;1480;51.456;6.670;2023-03-01T10:28:50;8.67;;;7.40;;
2940;SDS011;1480;51.456;6.670;2023-03-01T10:31:22;11.67;;;8.23;;
2940;SDS011;1480;51.456;6.670;2023-03-01T10:33:54;12.53;;;7.20;;
2940;SDS011;1480;51.456;6.670;2023-03-01T10:36:23;13.10;;;7.63;;
2940;SDS011;1480;51.456;6.670;2023-03-01T10:38:51;13.53;;;7.43;;
2940;SDS011;1480;51.456;6.670;2023-03-01T10:41:19;15.03;;;8.83;;
2940;SDS011;1480;51.456;6.670;2023-03-01T10:43:49;10.57;;;7.53;;
2940;SDS011;1480;51.456;6.670;2023-03-01T10:46:23;10.80;;;7.23;;
2940;SDS011;1480;51.456;6.670;2023-03-01T10:51:40;13.60;;;8.30;;
2940;SDS011;1480;51.456;6.670;2023-03-01T10:54:15;9.17;;;7.73;;
2940;SDS011;1480;51.456;6.670;2023-03-01T10:56:46;9.23;;;7.20;;
2940;SDS011;1480;51.456;6.670;2023-03-01T10:59:19;12.70;;;7.87;;
2940;SDS011;1480;51.456;6.670;2023-03-01T11:02:00;10.53;;;8.03;;
2940;SDS011;1480;51.456;6.670;2023-03-01T11:04:31;8.67;;;7.33;;
2940;SDS011;1480;51.456;6.670;2023-03-01T11:06:58;10.00;;;7.20;;
2940;SDS011;1480;51.456;6.670;2023-03-01T11:09:26;10.27;;;7.67;;
2940;SDS011;1480;51.456;6.670;2023-03-01T11:12:03;10.53;;;7.27;;
2940;SDS011;1480;51.456;6.670;2023-03-01T11:14:31;8.10;;;6.53;;
2940;SDS011;1480;51.456;6.670;2023-03-01T11:17:01;8.73;;;7.07;;
2940;SDS011;1480;51.456;6.670;2023-03-01T11:19:30;8.90;;;7.80;;
2940;SDS011;1480;51.456;6.670;2023-03-01T11:21:59;11.37;;;8.37;;
2940;SDS011;1480;51.456;6.670;2023-03-01T11:24:30;10.70;;;7.50;;
2940;SDS011;1480;51.456;6.670;2023-03-01T11:27:03;12.17;;;7.20;;
2940;SDS011;1480;51.456;6.670;2023-03-01T11:29:33;9.07;;;5.97;;
2940;SDS011;1480;51.456;6.670;2023-03-01T11:32:05;9.10;;;6.17;;
2940;SDS011;1480;51.456;6.670;2023-03-01T11:34:40;10.40;;;8.60;;
2940;SDS011;1480;51.456;6.670;2023-03-01T11:37:11;10.03;;;7.07;;
2940;SDS011;1480;51.456;6.670;2023-03-01T11:39:50;8.87;;;6.33;;
2940;SDS011;1480;51.456;6.670;2023-03-01T11:42:20;11.23;;;6.10;;
2940;SDS011;1480;51.456;6.670;2023-03-01T11:44:51;8.70;;;6.60;;
2940;SDS011;1480;51.456;6.670;2023-03-01T11:47:22;15.03;;;6.60;;
2940;SDS011;1480;51.456;6.670;2023-03-01T11:50:04;12.87;;;6.80;;
2940;SDS011;1480;51.456;6.670;2023-03-01T11:52:39;10.00;;;6.30;;
2940;SDS011;1480;51.456;6.670;2023-03-01T11:55:19;8.13;;;6.83;;
2940;SDS011;1480;51.456;6.670;2023-03-01T11:58:03;15.03;;;5.50;;
2940;SDS011;1480;51.456;6.670;2023-03-01T12:00:43;13.80;;;6.53;;
2940;SDS011;1480;51.456;6.670;2023-03-01T12:03:23;9.70;;;6.70;;
2940;SDS011;1480;51.456;6.670;2023-03-01T12:06:07;9.93;;;6.00;;
2940;SDS011;1480;51.456;6.670;2023-03-01T12:08:41;9.03;;;6.30;;
2940;SDS011;1480;51.456;6.670;2023-03-01T12:11:16;7.80;;;6.27;;
2940;SDS011;1480;51.456;6.670;2023-03-01T12:13:56;7.37;;;6.00;;
2940;SDS011;1480;51.456;6.670;2023-03-01T12:16:34;11.00;;;6.50;;
2940;SDS011;1480;51.456;6.670;2023-03-01T12:22:09;8.80;;;6.50;;
2940;SDS011;1480;51.456;6.670;2023-03-01T12:24:47;9.70;;;6.50;;
2940;SDS011;1480;51.456;6.670;2023-03-01T12:27:42;12.30;;;6.67;;
2940;SDS011;1480;51.456;6.670;2023-03-01T12:30:35;10.83;;;7.37;;
2940;SDS011;1480;51.456;6.670;2023-03-01T12:33:15;10.63;;;7.53;;
2940;SDS011;1480;51.456;6.670;2023-03-01T12:35:50;8.67;;;6.13;;
2940;SDS011;1480;51.456;6.670;2023-03-01T12:38:39;11.37;;;7.00;;
2940;SDS011;1480;51.456;6.670;2023-03-01T12:41:13;11.33;;;6.30;;
2940;SDS011;1480;51.456;6.670;2023-03-01T12:43:49;11.27;;;6.83;;
2940;SDS011;1480;51.456;6.670;2023-03-01T12:46:33;8.60;;;6.53;;
2940;SDS011;1480;51.456;6.670;2023-03-01T12:49:09;8.20;;;6.43;;
2940;SDS011;1480;51.456;6.670;2023-03-01T12:51:38;11.87;;;5.97;;
2940;SDS011;1480;51.456;6.670;2023-03-01T12:54:11;10.60;;;6.63;;
2940;SDS011;1480;51.456;6.670;2023-03-01T12:56:41;7.83;;;6.23;;
2940;SDS011;1480;51.456;6.670;2023-03-01T12:59:12;9.77;;;7.03;;
2940;SDS011;1480;51.456;6.670;2023-03-01T13:01:42;7.50;;;6.00;;
2940;SDS011;1480;51.456;6.670;2023-03-01T13:04:14;15.40;;;8.07;;
2940;SDS011;1480;51.456;6.670;2023-03-01T13:06:46;11.03;;;7.13;;
2940;SDS011;1480;51.456;6.670;2023-03-01T13:09:22;11.87;;;8.10;;
2940;SDS011;1480;51.456;6.670;2023-03-01T13:11:52;8.37;;;7.10;;
2940;SDS011;1480;51.456;6.670;2023-03-01T13:14:35;12.10;;;8.20;;
2940;SDS011;1480;51.456;6.670;2023-03-01T13:19:59;11.20;;;7.23;;
2940;SDS011;1480;51.456;6.670;2023-03-01T13:22:27;9.17;;;7.17;;
2940;SDS011;1480;51.456;6.670;2023-03-01T13:25:11;10.17;;;6.93;;
2940;SDS011;1480;51.456;6.670;2023-03-01T13:27:40;16.47;;;6.07;;
2940;SDS011;1480;51.456;6.670;2023-03-01T13:36:08;7.10;;;6.03;;
2940;SDS011;1480;51.456;6.670;2023-03-01T13:38:47;10.30;;;7.07;;
2940;SDS011;1480;51.456;6.670;2023-03-01T13:41:16;7.80;;;5.80;;
2940;SDS011;1480;51.456;6.670;2023-03-01T13:43:50;9.50;;;5.97;;
2940;SDS011;1480;51.456;6.670;2023-03-01T13:46:18;8.23;;;6.20;;
2940;SDS011;1480;51.456;6.670;2023-03-01T13:48:47;14.60;;;7.37;;
2940;SDS011;1480;51.456;6.670;2023-03-01T13:51:16;8.80;;;7.00;;
2940;SDS011;1480;51.456;6.670;2023-03-01T13:53:47;13.00;;;7.10;;
2940;SDS011;1480;51.456;6.670;2023-03-01T13:56:15;9.10;;;6.13;;
2940;SDS011;1480;51.456;6.670;2023-03-01T13:58:46;10.97;;;7.37;;
2940;SDS011;1480;51.456;6.670;2023-03-01T14:01:22;11.07;;;6.80;;
2940;SDS011;1480;51.456;6.670;2023-03-01T14:03:53;9.53;;;7.37;;
2940;SDS011;1480;51.456;6.670;2023-03-01T14:06:21;14.60;;;7.37;;
2940;SDS011;1480;51.456;6.670;2023-03-01T14:08:49;12.40;;;7.37;;
2940;SDS011;1480;51.456;6.670;2023-03-01T14:11:24;11.37;;;7.53;;
2940;SDS011;1480;51.456;6.670;2023-03-01T14:14:30;10.03;;;7.07;;
2940;SDS011;1480;51.456;6.670;2023-03-01T14:17:09;10.83;;;6.97;;
2940;SDS011;1480;51.456;6.670;2023-03-01T14:19:59;8.60;;;6.90;;
2940;SDS011;1480;51.456;6.670;2023-03-01T14:22:30;10.50;;;7.13;;
2940;SDS011;1480;51.456;6.670;2023-03-01T14:24:59;11.30;;;7.70;;
2940;SDS011;1480;51.456;6.670;2023-03-01T14:27:30;8.27;;;6.67;;
2940;SDS011;1480;51.456;6.670;2023-03-01T14:30:02;8.57;;;7.03;;
2940;SDS011;1480;51.456;6.670;2023-03-01T14:32:30;9.50;;;7.23;;
2940;SDS011;1480;51.456;6.670;2023-03-01T14:34:58;8.83;;;6.00;;
2940;SDS011;1480;51.456;6.670;2023-03-01T14:37:26;7.40;;;5.97;;
2940;SDS011;1480;51.456;6.670;2023-03-01T14:39:54;11.43;;;6.70;;
2940;SDS011;1480;51.456;6.670;2023-03-01T14:42:23;11.27;;;7.13;;
2940;SDS011;1480;51.456;6.670;2023-03-01T14:44:54;7.83;;;5.97;;
2940;SDS011;1480;51.456;6.670;2023-03-01T14:47:25;9.47;;;7.30;;
2940;SDS011;1480;51.456;6.670;2023-03-01T14:49:54;9.57;;;6.67;;
2940;SDS011;1480;51.456;6.670;2023-03-01T14:52:25;12.30;;;7.67;;
2940;SDS011;1480;51.456;6.670;2023-03-01T14:54:56;10.70;;;6.83;;
2940;SDS011;1480;51.456;6.670;2023-03-01T14:57:24;9.17;;;6.50;;
2940;SDS011;1480;51.456;6.670;2023-03-01T14:59:52;12.23;;;6.60;;
2940;SDS011;1480;51.456;6.670;2023-03-01T15:02:22;9.57;;;7.30;;
2940;SDS011;1480;51.456;6.670;2023-03-01T15:04:51;9.40;;;7.00;;
2940;SDS011;1480;51.456;6.670;2023-03-01T15:07:18;9.80;;;6.70;;
2940;SDS011;1480;51.456;6.670;2023-03-01T15:09:45;11.20;;;7.73;;
2940;SDS011;1480;51.456;6.670;2023-03-01T15:15:06;9.87;;;7.97;;
2940;SDS011;1480;51.456;6.670;2023-03-01T15:17:48;9.10;;;7.07;;
2940;SDS011;1480;51.456;6.670;2023-03-01T15:20:20;12.93;;;7.80;;
2940;SDS011;1480;51.456;6.670;2023-03-01T15:22:50;10.60;;;7.60;;
2940;SDS011;1480;51.456;6.670;2023-03-01T15:25:18;15.53;;;8.07;;
2940;SDS011;1480;51.456;6.670;2023-03-01T15:27:46;10.40;;;6.43;;
2940;SDS011;1480;51.456;6.670;2023-03-01T15:30:17;11.20;;;7.73;;
2940;SDS011;1480;51.456;6.670;2023-03-01T15:32:45;8.60;;;6.00;;
2940;SDS011;1480;51.456;6.670;2023-03-01T15:38:22;14.37;;;8.20;;
2940;SDS011;1480;51.456;6.670;2023-03-01T15:40:51;8.90;;;6.37;;